Time;durP1;ratioP1;P1;durP2;ratioP2;P2;SDS_P1;SDS_P2;PMS_P1;PMS_P2;Temp;Humidity;BMP_temperature;BMP_pressure;BME280_temperature;BME280_humidity;BME280_pressure;Samples;Min_cycle;Max_cycle;Signal;HPM_P1;HPM_P2
2022/10/13 00:00:56;;;;;;;2.33;1.90;;;;;;;23.77;42.18;101798.59;4180664;28;20040;-60
2022/10/13 00:03:02;;;;;;;2.05;1.75;;;;;;;23.74;42.25;101801.97;4180424;28;20087;-62
2022/10/13 00:05:03;;;;;;;3.90;1.88;;;;;;;23.76;42.45;101796.09;4179449;28;20048;-60
2022/10/13 00:07:04;;;;;;;2.35;2.08;;;;;;;23.75;42.48;101795.25;4179668;28;20106;-60
2022/10/13 00:09:06;;;;;;;3.67;1.80;;;;;;;23.75;42.38;101792.47;4179285;28;20045;-60
2022/10/13 00:11:15;;;;;;;2.83;2.13;;;;;;;23.76;42.38;101798.88;4178553;28;20041;-60
2022/10/13 00:13:17;;;;;;;5.00;2.10;;;;;;;23.69;42.38;101788.00;4180279;28;20110;-60
2022/10/13 00:15:19;;;;;;;7.90;2.22;;;;;;;23.76;42.01;101802.50;4176758;28;20098;-60
2022/10/13 00:17:23;;;;;;;1.85;1.75;;;;;;;23.65;42.37;101781.28;4179055;28;20469;-60
2022/10/13 00:19:24;;;;;;;7.00;2.30;;;;;;;23.79;42.05;101793.59;4180161;28;20107;-60
2022/10/13 00:21:29;;;;;;;3.15;1.90;;;;;;;23.78;42.42;101800.28;4180238;28;20086;-60
2022/10/13 00:23:32;;;;;;;4.35;2.25;;;;;;;23.77;42.22;101798.59;4176870;28;20095;-60
2022/10/13 00:25:46;;;;;;;3.17;2.00;;;;;;;23.77;42.28;101800.56;4176537;28;22895;-60
2022/10/13 00:27:50;;;;;;;2.30;1.83;;;;;;;23.77;42.39;101806.13;4169147;28;20086;-60
2022/10/13 00:29:52;;;;;;;4.43;2.38;;;;;;;23.76;42.41;101810.91;4177225;28;20484;-60
2022/10/13 00:31:53;;;;;;;2.85;1.88;;;;;;;23.76;42.48;101816.50;4163890;28;20033;-60
2022/10/13 00:33:54;;;;;;;3.30;2.10;;;;;;;23.75;42.39;101814.81;4163543;28;20050;-60
2022/10/13 00:35:56;;;;;;;4.07;2.38;;;;;;;23.75;42.34;101814.81;4162977;28;20046;-60
2022/10/13 00:37:59;;;;;;;3.72;2.03;;;;;;;23.67;42.49;101789.38;4163686;28;20095;-59
2022/10/13 00:40:01;;;;;;;4.07;1.98;;;;;;;23.76;42.45;101810.06;4163288;28;20080;-60
2022/10/13 00:42:03;;;;;;;5.22;2.92;;;;;;;23.77;42.53;101801.38;4166489;28;20037;-60
2022/10/13 00:44:25;;;;;;;2.00;1.80;;;;;;;23.76;42.18;101799.72;4180049;28;20443;-60
2022/10/13 00:46:33;;;;;;;3.03;2.08;;;;;;;23.79;42.17;101793.59;4171499;28;20492;-60
2022/10/13 00:48:34;;;;;;;2.75;1.70;;;;;;;23.76;42.40;101779.31;4162789;28;20038;-60
2022/10/13 00:50:40;;;;;;;1.90;1.70;;;;;;;23.79;42.45;101779.59;4180834;28;20075;-60
2022/10/13 00:52:42;;;;;;;3.35;2.00;;;;;;;23.81;42.26;101771.75;4179335;28;20438;-60
2022/10/13 00:54:44;;;;;;;3.80;1.88;;;;;;;23.82;42.33;101772.59;4179569;28;20479;-60
2022/10/13 00:56:47;;;;;;;2.08;1.75;;;;;;;23.74;42.26;101762.84;4176739;28;20041;-60
2022/10/13 00:58:55;;;;;;;2.45;1.65;;;;;;;23.62;42.37;101747.44;4171793;28;20044;-60
2022/10/13 01:00:58;;;;;;;3.88;2.03;;;;;;;23.76;42.38;101780.16;4178919;28;20496;-60
2022/10/13 01:03:00;;;;;;;3.60;1.90;;;;;;;23.76;42.32;101777.34;4179627;28;20099;-60
2022/10/13 01:05:03;;;;;;;3.78;1.80;;;;;;;23.61;42.78;101751.34;4180416;28;20021;-60
2022/10/13 01:07:05;;;;;;;3.95;1.58;;;;;;;23.69;42.68;101776.81;4180202;28;20037;-60
2022/10/13 01:09:06;;;;;;;4.90;2.08;;;;;;;23.75;42.68;101786.88;4179925;28;20103;-60
2022/10/13 01:11:37;;;;;;;2.92;2.03;;;;;;;23.74;42.63;101788.00;4179847;28;20094;-60
2022/10/13 01:14:00;;;;;;;3.35;1.92;;;;;;;23.75;42.49;101772.91;4179621;28;20090;-60
2022/10/13 01:16:21;;;;;;;2.47;1.80;;;;;;;23.73;42.43;101794.72;4179752;28;20045;-60
2022/10/13 01:18:44;;;;;;;3.65;1.90;;;;;;;23.74;42.56;101789.97;4149404;28;20434;-61
2022/10/13 01:21:04;;;;;;;3.70;2.00;;;;;;;23.76;42.71;101780.16;4181168;28;20110;-60
2022/10/13 01:23:47;;;;;;;2.65;1.70;;;;;;;23.74;42.85;101784.38;4183576;28;20037;-60
2022/10/13 01:25:59;;;;;;;4.60;1.95;;;;;;;23.65;42.57;101763.69;4154203;28;20033;-60
2022/10/13 01:28:13;;;;;;;5.97;2.30;;;;;;;23.76;42.54;101771.78;4183231;28;20044;-60
2022/10/13 01:30:22;;;;;;;2.15;1.70;;;;;;;23.75;42.58;101778.50;4182783;28;20048;-60
2022/10/13 01:32:35;;;;;;;1.90;1.73;;;;;;;23.75;42.79;101766.47;4182253;28;20041;-61
2022/10/13 01:35:00;;;;;;;1.98;1.73;;;;;;;23.75;42.67;101766.47;4182229;28;20049;-60
2022/10/13 01:37:23;;;;;;;1.98;1.73;;;;;;;23.78;42.59;101769.56;4183413;28;20041;-59
2022/10/13 01:39:45;;;;;;;2.67;1.83;;;;;;;23.77;42.55;101773.44;4183349;28;20036;-60
2022/10/13 01:41:51;;;;;;;3.72;1.90;;;;;;;23.66;42.67;101749.44;4182360;28;20036;-60
2022/10/13 01:44:04;;;;;;;3.33;1.75;;;;;;;23.75;42.70;101767.31;4182853;28;20098;-60
2022/10/13 01:46:14;;;;;;;4.40;1.60;;;;;;;23.75;42.89;101769.25;4181537;28;20479;-60
2022/10/13 01:48:16;;;;;;;2.58;1.85;;;;;;;23.57;42.72;101739.91;4182293;28;20075;-60
2022/10/13 01:50:21;;;;;;;2.75;1.85;;;;;;;23.77;42.91;101762.25;4182503;28;20095;-60
2022/10/13 01:52:26;;;;;;;2.38;1.92;;;;;;;23.75;42.59;101753.34;4182593;28;20090;-60
2022/10/13 01:54:28;;;;;;;1.73;1.60;;;;;;;23.76;42.96;101754.16;4181652;28;20098;-61
2022/10/13 01:56:29;;;;;;;3.83;2.30;;;;;;;23.75;42.85;101756.13;4182265;28;20072;-61
2022/10/13 01:58:33;;;;;;;1.92;1.63;;;;;;;23.75;42.55;101758.91;4183080;28;20029;-59
2022/10/13 02:00:47;;;;;;;2.53;2.13;;;;;;;23.75;42.90;101758.09;4181654;28;20103;-60
2022/10/13 02:03:07;;;;;;;2.42;1.60;;;;;;;23.72;42.69;101741.88;4183013;28;20033;-61
2022/10/13 02:05:22;;;;;;;2.10;1.80;;;;;;;23.74;42.75;101739.66;4182777;28;20422;-61
2022/10/13 02:07:37;;;;;;;2.10;1.90;;;;;;;23.73;42.77;101741.63;4182331;28;20438;-60
2022/10/13 02:10:01;;;;;;;2.15;1.80;;;;;;;23.72;42.67;101737.13;4181901;28;20099;-59
2022/10/13 02:12:11;;;;;;;4.93;3.00;;;;;;;23.74;42.55;101740.47;4177109;28;20037;-59
2022/10/13 02:14:17;;;;;;;2.08;1.80;;;;;;;23.74;42.96;101743.28;4182049;28;20041;-60
2022/10/13 02:16:22;;;;;;;2.60;1.85;;;;;;;23.74;42.75;101740.47;4181587;28;20418;-60
2022/10/13 02:18:30;;;;;;;2.17;1.83;;;;;;;23.63;42.74;101713.63;4182355;28;20483;-60
2022/10/13 02:20:33;;;;;;;3.22;1.50;;;;;;;23.03;42.51;101612.00;4182456;28;20422;-60
2022/10/13 02:22:41;;;;;;;1.83;1.65;;;;;;;23.63;42.83;101715.59;4181690;28;20475;-60
2022/10/13 02:24:42;;;;;;;2.47;1.67;;;;;;;23.75;42.69;101735.72;4180905;28;20047;-60
2022/10/13 02:26:44;;;;;;;4.95;1.80;;;;;;;23.74;42.66;101732.09;4181899;28;20422;-60
2022/10/13 02:28:51;;;;;;;2.35;1.80;;;;;;;23.59;42.79;101705.00;4177298;28;20094;-61
2022/10/13 02:30:52;;;;;;;1.98;1.77;;;;;;;23.74;42.67;101725.69;4181102;28;20110;-60
2022/10/13 02:32:54;;;;;;;2.40;1.80;;;;;;;23.75;42.68;101713.38;4181393;28;20033;-60
2022/10/13 02:34:55;;;;;;;2.22;1.60;;;;;;;23.73;42.88;101710.88;4181272;28;20500;-60
2022/10/13 02:36:56;;;;;;;3.05;1.75;;;;;;;23.65;42.66;101705.84;4181727;28;20040;-60
2022/10/13 02:38:58;;;;;;;2.17;1.58;;;;;;;23.74;43.00;101718.13;4181784;28;20041;-60
2022/10/13 02:41:01;;;;;;;4.18;1.80;;;;;;;23.73;43.07;101716.47;4181527;28;20171;-59
2022/10/13 02:43:08;;;;;;;2.95;1.85;;;;;;;23.66;42.59;101704.72;4180022;28;20041;-60
2022/10/13 02:45:10;;;;;;;2.60;1.90;;;;;;;23.58;42.59;101696.88;4177149;28;20488;-59
2022/10/13 02:47:12;;;;;;;2.22;2.03;;;;;;;23.74;42.92;101731.28;4182340;28;20491;-60
2022/10/13 02:49:13;;;;;;;2.80;1.85;;;;;;;23.73;42.73;101730.44;4180523;28;20442;-60
2022/10/13 02:51:17;;;;;;;2.33;1.92;;;;;;;23.74;42.55;101729.31;4181282;28;20091;-61
2022/10/13 02:53:21;;;;;;;2.90;2.00;;;;;;;23.62;42.83;101709.16;4181484;28;20107;-61
2022/10/13 02:55:22;;;;;;;2.88;1.67;;;;;;;23.74;42.96;101729.31;4180569;28;20029;-61
2022/10/13 02:57:24;;;;;;;1.90;1.70;;;;;;;23.73;42.83;101713.66;4181187;28;20037;-60
2022/10/13 02:59:25;;;;;;;2.10;1.88;;;;;;;23.68;42.75;101696.88;4181363;28;20041;-60
2022/10/13 03:01:29;;;;;;;4.20;2.40;;;;;;;23.73;42.65;101704.41;4182205;28;20024;-59
2022/10/13 03:03:33;;;;;;;2.38;1.90;;;;;;;23.70;42.88;101694.66;4179842;28;20487;-59
2022/10/13 03:05:34;;;;;;;1.90;1.40;;;;;;;23.73;43.08;101702.50;4180025;28;20066;-61
2022/10/13 03:07:38;;;;;;;1.83;1.70;;;;;;;23.50;42.79;101661.09;4180685;28;20090;-60
2022/10/13 03:09:40;;;;;;;3.38;1.60;;;;;;;23.73;43.07;101696.03;4165963;28;20050;-60
2022/10/13 03:11:41;;;;;;;2.65;1.60;;;;;;;23.72;42.91;101692.41;4166025;28;20041;-58
2022/10/13 03:13:42;;;;;;;1.73;1.60;;;;;;;23.72;42.65;101689.63;4180997;28;20040;-61
2022/10/13 03:15:43;;;;;;;2.20;1.60;;;;;;;23.68;43.03;101674.53;4180700;28;20044;-58
2022/10/13 03:17:45;;;;;;;16.35;2.70;;;;;;;23.69;42.80;101669.81;4181005;28;20107;-60
2022/10/13 03:19:47;;;;;;;1.75;1.58;;;;;;;23.76;43.05;101682.34;4180456;28;20115;-60
2022/10/13 03:21:48;;;;;;;4.28;1.90;;;;;;;23.79;42.85;101681.78;4180143;28;20036;-60
2022/10/13 03:23:49;;;;;;;12.50;2.05;;;;;;;23.73;42.79;101657.78;4180635;28;20033;-60
2022/10/13 03:25:51;;;;;;;7.95;2.00;;;;;;;23.79;43.07;101667.81;4181012;28;20041;-59
2022/10/13 03:27:55;;;;;;;7.60;1.70;;;;;;;23.61;43.04;101632.06;4180619;28;20098;-59
2022/10/13 03:29:56;;;;;;;4.32;2.05;;;;;;;23.81;42.81;101665.56;4180663;28;20041;-59
2022/10/13 03:31:57;;;;;;;2.58;1.65;;;;;;;23.80;43.11;101658.31;4180854;28;20037;-60
2022/10/13 03:33:58;;;;;;;3.08;1.73;;;;;;;23.81;43.19;101662.75;4180939;28;20033;-60
2022/10/13 03:36:01;;;;;;;2.72;1.90;;;;;;;23.82;43.10;101664.47;4181297;28;20036;-59
2022/10/13 03:38:02;;;;;;;1.98;1.63;;;;;;;23.82;43.20;101658.88;4180547;28;20102;-60
2022/10/13 03:40:04;;;;;;;3.60;1.70;;;;;;;23.83;43.37;101660.53;4180519;28;20037;-59
2022/10/13 03:42:06;;;;;;;3.45;1.90;;;;;;;23.79;43.13;101658.59;4179905;28;20044;-59
2022/10/13 03:44:13;;;;;;;6.95;1.90;;;;;;;23.83;43.30;101671.72;4180603;28;20037;-60
2022/10/13 03:46:16;;;;;;;7.70;1.80;;;;;;;23.84;43.00;101667.78;4180519;28;20037;-59
2022/10/13 03:48:21;;;;;;;1.85;1.42;;;;;;;23.76;43.32;101648.81;4175912;28;20032;-61
2022/10/13 03:50:22;;;;;;;4.20;1.98;;;;;;;23.87;43.05;101666.41;4169471;28;20482;-60
2022/10/13 03:52:23;;;;;;;1.85;1.50;;;;;;;23.84;43.46;101662.22;4164120;28;20480;-59
2022/10/13 03:54:24;;;;;;;3.35;1.52;;;;;;;23.88;43.40;101673.66;4174754;28;20044;-60
2022/10/13 03:56:26;;;;;;;4.85;1.70;;;;;;;23.88;43.27;101662.47;4180648;28;20102;-59
2022/10/13 03:58:28;;;;;;;2.58;1.63;;;;;;;23.90;43.24;101656.59;4170363;28;20095;-60
2022/10/13 04:00:29;;;;;;;3.50;1.77;;;;;;;23.90;43.53;101653.81;4180189;28;20096;-60
2022/10/13 04:02:30;;;;;;;4.15;1.70;;;;;;;23.90;43.39;101659.41;4179305;28;20090;-60
2022/10/13 04:04:32;;;;;;;4.40;1.77;;;;;;;23.91;43.46;101652.69;4170549;28;20072;-60
2022/10/13 04:06:33;;;;;;;1.73;1.63;;;;;;;23.91;43.35;101649.88;4164191;28;20041;-60
2022/10/13 04:08:34;;;;;;;3.20;1.75;;;;;;;23.91;43.33;101647.09;4173817;28;20041;-60
2022/10/13 04:10:36;;;;;;;3.47;1.40;;;;;;;23.61;43.28;101598.53;4180261;28;20095;-60
2022/10/13 04:12:37;;;;;;;2.25;1.42;;;;;;;23.91;43.68;101649.88;4175368;28;20073;-60
2022/10/13 04:14:38;;;;;;;3.05;1.83;;;;;;;23.71;43.06;101612.50;4163371;28;20099;-59
2022/10/13 04:16:42;;;;;;;2.55;1.58;;;;;;;23.91;43.26;101647.09;4164217;28;20144;-59
2022/10/13 04:18:45;;;;;;;3.10;2.13;;;;;;;23.93;43.16;101636.47;4178648;28;20121;-59
2022/10/13 04:20:51;;;;;;;2.90;1.80;;;;;;;23.80;43.20;101616.38;4164616;28;20068;-59
2022/10/13 04:22:53;;;;;;;2.63;1.67;;;;;;;23.94;43.24;101632.56;4164217;28;20042;-59
2022/10/13 04:24:54;;;;;;;2.28;1.40;;;;;;;23.92;43.55;101624.47;4178154;28;20442;-59
2022/10/13 04:26:55;;;;;;;5.18;2.88;;;;;;;23.87;43.41;101621.69;4179213;28;20082;-59
2022/10/13 04:28:57;;;;;;;4.32;1.60;;;;;;;23.91;43.41;101633.94;4175059;28;20021;-59
2022/10/13 04:30:59;;;;;;;1.58;1.42;;;;;;;23.89;43.48;101624.19;4163872;28;20037;-59
2022/10/13 04:33:00;;;;;;;3.20;2.00;;;;;;;23.92;43.25;101606.84;4169845;28;20033;-58
2022/10/13 04:35:02;;;;;;;3.72;1.40;;;;;;;23.92;43.42;101610.47;4179601;28;20036;-59
2022/10/13 04:37:03;;;;;;;3.05;1.80;;;;;;;23.94;43.36;101607.38;4170079;28;20111;-61
2022/10/13 04:39:07;;;;;;;3.15;1.50;;;;;;;23.95;43.26;101606.25;4179989;28;20097;-60
2022/10/13 04:41:10;;;;;;;2.80;1.75;;;;;;;23.95;43.24;101607.09;4180126;28;20041;-62
2022/10/13 04:43:11;;;;;;;2.33;1.80;;;;;;;23.95;43.11;101609.06;4180270;28;20086;-61
2022/10/13 04:45:15;;;;;;;2.85;1.77;;;;;;;23.95;43.11;101612.69;4179060;28;20103;-61
2022/10/13 04:47:17;;;;;;;2.00;1.67;;;;;;;23.95;43.48;101617.44;4180229;28;20037;-61
2022/10/13 04:49:18;;;;;;;4.22;1.40;;;;;;;23.91;43.55;101605.16;4179950;28;20053;-58
2022/10/13 04:51:24;;;;;;;3.47;1.73;;;;;;;23.87;43.33;101598.47;4180253;28;20041;-61
2022/10/13 04:53:28;;;;;;;2.08;1.70;;;;;;;23.92;43.52;101613.28;4180102;28;20045;-59
2022/10/13 04:55:29;;;;;;;2.47;1.60;;;;;;;23.92;43.60;101609.66;4182009;28;20481;-60
2022/10/13 04:57:33;;;;;;;2.22;1.70;;;;;;;23.91;43.75;101593.97;4183645;28;20106;-60
2022/10/13 04:59:34;;;;;;;2.97;1.63;;;;;;;23.89;43.55;101597.06;4183307;28;20045;-61
2022/10/13 05:01:36;;;;;;;1.50;1.40;;;;;;;23.90;43.40;101601.53;4183379;28;20094;-60
2022/10/13 05:03:37;;;;;;;1.77;1.63;;;;;;;23.91;43.45;101599.56;4182830;28;20451;-61
2022/10/13 05:05:39;;;;;;;2.38;1.55;;;;;;;23.91;43.54;101588.38;4182802;28;20091;-61
2022/10/13 05:07:40;;;;;;;3.67;1.65;;;;;;;23.92;43.60;101592.88;4183320;28;20480;-60
2022/10/13 05:09:41;;;;;;;4.72;2.00;;;;;;;23.91;43.58;101591.19;4182734;28;20094;-60
2022/10/13 05:11:43;;;;;;;2.33;1.40;;;;;;;23.91;43.33;101593.97;4182660;28;20037;-60
2022/10/13 05:13:47;;;;;;;2.58;1.70;;;;;;;23.88;43.43;101577.78;4182964;28;20115;-61
2022/10/13 05:15:48;;;;;;;2.63;1.77;;;;;;;23.75;43.73;101559.69;4182041;28;20048;-60
2022/10/13 05:17:49;;;;;;;1.58;1.48;;;;;;;23.91;43.48;101575.25;4182658;28;20347;-61
2022/10/13 05:19:51;;;;;;;2.38;1.30;;;;;;;23.91;43.49;101578.03;4182780;28;20107;-60
2022/10/13 05:21:52;;;;;;;2.30;1.60;;;;;;;23.91;43.23;101574.41;4175183;28;20542;-61
2022/10/13 05:23:55;;;;;;;2.20;1.70;;;;;;;23.92;43.53;101574.16;4166565;28;20103;-61
2022/10/13 05:26:04;;;;;;;2.15;1.67;;;;;;;23.89;43.81;101562.69;4165854;28;20447;-61
2022/10/13 05:28:07;;;;;;;1.42;1.33;;;;;;;23.92;43.44;101565.75;4166336;28;20111;-61
2022/10/13 05:30:09;;;;;;;3.00;1.52;;;;;;;23.90;43.36;101542.81;4169204;28;20484;-60
2022/10/13 05:32:10;;;;;;;3.17;1.55;;;;;;;23.90;43.51;101533.63;4181657;28;20041;-60
2022/10/13 05:34:12;;;;;;;1.67;1.58;;;;;;;23.91;43.65;101538.06;4170612;28;20053;-61
2022/10/13 05:36:16;;;;;;;1.55;1.45;;;;;;;23.90;43.45;101530.81;4174203;28;20372;-60
2022/10/13 05:38:18;;;;;;;2.40;1.63;;;;;;;23.91;43.75;101521.31;4182271;28;20441;-61
2022/10/13 05:40:22;;;;;;;3.05;1.40;;;;;;;23.91;43.70;101529.69;4181190;28;20041;-60
2022/10/13 05:42:27;;;;;;;1.95;1.50;;;;;;;23.80;43.46;101493.41;4173775;28;20037;-61
2022/10/13 05:44:29;;;;;;;2.53;1.88;;;;;;;23.79;43.82;101491.75;4160891;28;20435;-61
2022/10/13 05:46:30;;;;;;;1.40;1.20;;;;;;;23.90;43.77;101509.28;4174679;28;20041;-61
2022/10/13 05:48:31;;;;;;;2.20;1.60;;;;;;;23.91;43.64;101504.53;4180780;28;20484;-61
2022/10/13 05:50:34;;;;;;;1.65;1.55;;;;;;;23.33;43.75;101412.88;4166449;28;20534;-61
2022/10/13 05:52:36;;;;;;;1.40;1.30;;;;;;;23.92;43.48;101495.88;4168568;28;20978;-60
2022/10/13 05:54:45;;;;;;;1.73;1.60;;;;;;;23.93;43.84;101502.31;4172044;28;20476;-60
2022/10/13 05:57:18;;;;;;;1.60;1.50;;;;;;;23.92;43.35;101495.88;4181659;28;20048;-60
2022/10/13 05:59:22;;;;;;;1.50;1.40;;;;;;;23.98;43.75;101488.28;4175098;28;20037;-61
2022/10/13 06:01:26;;;;;;;3.17;1.48;;;;;;;23.94;43.48;101476.00;4168940;28;20480;-61
2022/10/13 06:03:28;;;;;;;2.43;1.60;;;;;;;23.80;43.68;101459.88;4166034;28;20045;-60
2022/10/13 06:05:31;;;;;;;2.17;1.25;;;;;;;23.97;43.58;101476.28;4178224;28;20278;-61
2022/10/13 06:07:35;;;;;;;2.03;1.40;;;;;;;23.96;43.66;101463.44;4181769;28;20491;-60
2022/10/13 06:09:43;;;;;;;2.97;1.50;;;;;;;23.89;43.64;101450.88;4182627;28;20029;-61
2022/10/13 06:11:45;;;;;;;1.85;1.55;;;;;;;23.99;43.22;101456.41;4182405;28;20037;-61
2022/10/13 06:13:46;;;;;;;1.80;1.70;;;;;;;23.99;43.78;101446.06;4182332;28;20483;-61
2022/10/13 06:15:47;;;;;;;1.50;1.35;;;;;;;23.99;43.38;101445.22;4181722;28;20110;-61
2022/10/13 06:17:48;;;;;;;2.03;1.60;;;;;;;24.00;43.28;101438.50;4182270;28;20037;-61
2022/10/13 06:19:52;;;;;;;1.70;1.30;;;;;;;23.98;43.36;101432.38;4181780;28;20045;-61
2022/10/13 06:21:56;;;;;;;2.10;1.80;;;;;;;23.98;43.58;101433.22;4181423;28;20554;-61
2022/10/13 06:24:00;;;;;;;1.92;1.52;;;;;;;23.98;43.23;101432.38;4180886;28;20091;-61
2022/10/13 06:26:02;;;;;;;1.38;1.27;;;;;;;24.00;43.38;101424.53;4180404;28;20091;-61
2022/10/13 06:28:06;;;;;;;1.67;1.50;;;;;;;23.99;43.71;101428.47;4180511;28;20095;-61
2022/10/13 06:30:07;;;;;;;2.10;1.58;;;;;;;23.79;43.51;101390.31;4181799;28;20044;-61
2022/10/13 06:32:09;;;;;;;1.65;1.50;;;;;;;24.00;43.54;101418.94;4179391;28;20091;-61
2022/10/13 06:34:11;;;;;;;2.00;1.40;;;;;;;24.00;43.59;101410.56;4180877;28;20102;-61
2022/10/13 06:36:12;;;;;;;1.80;1.25;;;;;;;24.01;43.44;101403.84;4180477;28;20045;-61
2022/10/13 06:38:16;;;;;;;1.30;1.20;;;;;;;24.00;43.34;101393.78;4176801;28;20081;-61
2022/10/13 06:40:20;;;;;;;1.85;1.40;;;;;;;24.01;43.35;101398.25;4165838;28;20115;-61
2022/10/13 06:42:21;;;;;;;1.50;1.40;;;;;;;24.01;43.64;101398.25;4170932;28;20099;-61
2022/10/13 06:44:23;;;;;;;1.60;1.50;;;;;;;23.93;43.46;101379.31;4180666;28;20044;-61
2022/10/13 06:46:24;;;;;;;3.90;1.33;;;;;;;23.81;43.69;101357.31;4181770;28;20041;-64
2022/10/13 06:48:27;;;;;;;1.58;1.48;;;;;;;23.99;43.36;101392.13;4181226;28;20041;-61
2022/10/13 06:50:31;;;;;;;3.13;1.23;;;;;;;24.00;43.47;101396.56;4180988;28;20415;-61
2022/10/13 06:52:35;;;;;;;1.80;1.30;;;;;;;23.99;43.73;101389.31;4181476;28;20041;-61
2022/10/13 06:54:36;;;;;;;3.00;1.40;;;;;;;23.94;43.61;101378.19;4181046;28;20037;-61
2022/10/13 06:56:40;;;;;;;1.25;1.15;;;;;;;23.95;43.76;101388.22;4181147;28;20082;-61
2022/10/13 06:58:45;;;;;;;1.65;1.35;;;;;;;23.98;43.47;101387.66;4181445;28;20090;-61
2022/10/13 07:00:49;;;;;;;3.88;1.83;;;;;;;23.99;43.45;101392.94;4181018;28;20045;-61
2022/10/13 07:02:51;;;;;;;2.05;1.50;;;;;;;23.99;43.83;101386.53;4181273;28;20102;-61
2022/10/13 07:04:52;;;;;;;1.90;1.70;;;;;;;23.83;43.47;101352.28;4179480;28;20045;-61
2022/10/13 07:06:59;;;;;;;1.73;1.60;;;;;;;23.79;43.54;101351.19;4180463;28;20040;-60
2022/10/13 07:09:04;;;;;;;1.42;1.33;;;;;;;23.98;43.66;101365.28;4181247;28;20091;-61
2022/10/13 07:11:08;;;;;;;2.65;1.33;;;;;;;23.98;43.61;101362.50;4179146;28;20029;-61
2022/10/13 07:13:09;;;;;;;1.95;1.55;;;;;;;23.98;43.44;101356.91;4179834;28;20322;-61
2022/10/13 07:15:10;;;;;;;1.67;1.35;;;;;;;23.94;43.70;101337.09;4179595;28;20443;-59
2022/10/13 07:17:12;;;;;;;1.60;1.45;;;;;;;23.98;43.32;101334.53;4161969;28;20041;-59
2022/10/13 07:19:22;;;;;;;1.52;1.40;;;;;;;23.99;43.28;101325.84;4164491;28;20041;-59
2022/10/13 07:21:29;;;;;;;1.40;1.25;;;;;;;24.02;43.61;101324.44;4148817;28;20112;-59
2022/10/13 07:23:30;;;;;;;1.42;1.30;;;;;;;24.02;43.86;101313.25;4152659;28;20037;-59
2022/10/13 07:25:31;;;;;;;1.58;1.25;;;;;;;23.95;43.57;101309.97;4163962;28;20080;-59
2022/10/13 07:27:33;;;;;;;1.42;1.30;;;;;;;23.99;43.51;101302.66;4164184;28;20487;-59
2022/10/13 07:29:34;;;;;;;1.40;1.30;;;;;;;23.89;43.73;101286.00;4165495;28;20037;-59
2022/10/13 07:31:35;;;;;;;1.38;1.23;;;;;;;23.98;43.82;101292.63;4163385;28;20107;-59
2022/10/13 07:33:37;;;;;;;2.35;1.40;;;;;;;23.99;43.87;101291.47;4164112;28;20056;-60
2022/10/13 07:35:39;;;;;;;1.40;1.30;;;;;;;23.96;43.68;101283.66;4163889;28;20049;-59
2022/10/13 07:37:40;;;;;;;3.47;1.42;;;;;;;23.99;43.78;101299.88;4165489;28;20091;-59
2022/10/13 07:39:42;;;;;;;1.77;1.55;;;;;;;23.99;43.45;101302.66;4164170;28;20045;-59
2022/10/13 07:41:43;;;;;;;2.15;1.52;;;;;;;23.99;43.94;101299.88;4164320;28;20029;-59
2022/10/13 07:43:46;;;;;;;1.45;1.25;;;;;;;23.83;43.54;101269.25;4164312;28;20057;-59
2022/10/13 07:45:48;;;;;;;1.55;1.40;;;;;;;23.98;44.03;101287.03;4148950;28;20030;-61
2022/10/13 07:47:49;;;;;;;1.52;1.27;;;;;;;23.95;43.96;101293.19;4165230;28;20111;-58
2022/10/13 07:49:50;;;;;;;1.65;1.33;;;;;;;23.97;43.67;101280.59;4163933;28;20072;-61
2022/10/13 07:51:52;;;;;;;3.67;1.73;;;;;;;23.96;43.90;101276.16;4163634;28;20037;-59
2022/10/13 07:53:53;;;;;;;1.35;1.25;;;;;;;23.86;43.82;101261.41;4164732;28;20079;-61
2022/10/13 07:55:59;;;;;;;1.33;1.23;;;;;;;23.91;44.01;101267.78;4163674;28;20447;-60
2022/10/13 07:58:01;;;;;;;2.05;1.50;;;;;;;23.97;43.54;101263.84;4163731;28;20104;-61
2022/10/13 08:00:04;;;;;;;2.05;1.30;;;;;;;23.97;43.61;101261.03;4163927;28;20103;-61
2022/10/13 08:02:06;;;;;;;1.60;1.20;;;;;;;23.97;43.56;101258.25;4162828;28;20578;-61
2022/10/13 08:04:07;;;;;;;1.40;1.15;;;;;;;23.99;43.56;101260.72;4162675;28;20538;-59
2022/10/13 08:06:09;;;;;;;1.38;1.20;;;;;;;23.98;43.85;101276.66;4164373;28;20041;-58
2022/10/13 08:08:10;;;;;;;1.73;1.50;;;;;;;23.99;43.72;101283.09;4164008;28;20045;-62
2022/10/13 08:10:11;;;;;;;2.22;1.10;;;;;;;23.98;43.58;101292.63;4156380;28;20033;-59
2022/10/13 08:12:13;;;;;;;1.38;1.27;;;;;;;23.96;43.92;101284.53;4148233;28;20148;-59
2022/10/13 08:14:14;;;;;;;1.52;1.40;;;;;;;23.98;43.59;101287.03;4156155;28;20420;-59
2022/10/13 08:16:18;;;;;;;1.60;1.50;;;;;;;23.86;44.09;101267.81;4170281;28;20053;-60
2022/10/13 08:18:20;;;;;;;2.13;1.50;;;;;;;23.97;43.88;101283.41;4180710;28;20071;-60
2022/10/13 08:20:21;;;;;;;1.90;1.23;;;;;;;23.98;44.05;101287.84;4179596;28;20472;-60
2022/10/13 08:22:22;;;;;;;1.52;1.15;;;;;;;23.83;43.72;101263.69;4179944;28;20098;-59
2022/10/13 08:24:24;;;;;;;1.33;1.23;;;;;;;23.97;43.93;101296.53;4164791;28;20083;-60
2022/10/13 08:26:27;;;;;;;1.85;1.50;;;;;;;23.97;44.06;101297.38;4170935;28;20103;-60
2022/10/13 08:28:31;;;;;;;1.80;1.58;;;;;;;23.98;44.03;101301.81;4165811;28;20404;-60
2022/10/13 08:30:33;;;;;;;1.30;1.20;;;;;;;23.98;43.79;101298.22;4167089;28;20046;-60
2022/10/13 08:32:34;;;;;;;1.50;1.40;;;;;;;23.93;44.18;101289.88;4167143;28;20038;-60
2022/10/13 08:34:38;;;;;;;1.42;1.33;;;;;;;23.96;43.84;101294.84;4166866;28;20037;-60
2022/10/13 08:36:40;;;;;;;1.40;1.30;;;;;;;23.94;43.97;101292.34;4166896;28;20107;-60
2022/10/13 08:38:44;;;;;;;1.92;1.40;;;;;;;23.71;44.00;101260.41;4166778;28;20042;-60
2022/10/13 08:40:50;;;;;;;1.45;1.35;;;;;;;23.93;43.98;101290.69;4166818;28;20476;-60
2022/10/13 08:42:51;;;;;;;1.73;1.50;;;;;;;23.96;44.20;101283.66;4172308;28;20094;-59
2022/10/13 08:44:59;;;;;;;1.75;1.58;;;;;;;23.95;44.09;101282.00;4183067;28;20033;-60
2022/10/13 08:47:27;;;;;;;1.75;1.33;;;;;;;23.94;43.95;101281.19;4181840;28;20037;-60
2022/10/13 08:49:29;;;;;;;1.25;1.15;;;;;;;23.96;44.02;101272.50;4183442;28;20040;-60
2022/10/13 08:51:35;;;;;;;1.27;1.17;;;;;;;23.98;44.11;101267.47;4183297;28;20094;-60
2022/10/13 08:53:40;;;;;;;1.75;1.20;;;;;;;23.95;44.14;101266.06;4183346;28;20045;-60
2022/10/13 08:56:24;;;;;;;1.67;1.20;;;;;;;23.94;44.00;101274.75;4183838;28;20029;-60
2022/10/13 08:58:31;;;;;;;1.33;1.23;;;;;;;23.98;44.06;101275.84;4170012;28;20040;-60
2022/10/13 09:00:40;;;;;;;1.50;1.15;;;;;;;23.91;44.12;101247.38;4183003;28;20045;-60
2022/10/13 09:02:43;;;;;;;1.60;1.50;;;;;;;23.98;44.12;101250.69;4176629;28;20107;-60
2022/10/13 09:04:48;;;;;;;1.42;1.20;;;;;;;23.98;44.04;101247.88;4166331;28;20104;-60
2022/10/13 09:06:57;;;;;;;1.50;1.40;;;;;;;23.98;43.78;101247.88;4166504;28;20045;-60
2022/10/13 09:09:04;;;;;;;1.42;1.33;;;;;;;23.98;43.80;101247.88;4166458;28;20041;-60
2022/10/13 09:11:08;;;;;;;1.85;1.27;;;;;;;23.96;43.90;101248.19;4166614;28;20053;-60
2022/10/13 09:13:10;;;;;;;1.60;1.50;;;;;;;23.96;44.26;101244.53;4166434;28;20041;-60
2022/10/13 09:15:12;;;;;;;1.02;1.00;;;;;;;23.96;44.16;101250.13;4165865;28;20076;-60
2022/10/13 09:17:25;;;;;;;1.63;1.10;;;;;;;23.95;44.11;101259.66;4174735;28;20431;-59
2022/10/13 09:19:35;;;;;;;1.50;1.40;;;;;;;23.95;44.22;101251.25;4169776;28;20044;-60
2022/10/13 09:21:36;;;;;;;1.40;1.30;;;;;;;23.98;43.88;101242.31;4181014;28;20045;-59
2022/10/13 09:23:38;;;;;;;2.55;1.30;;;;;;;23.93;44.11;101236.75;4170527;28;20038;-60
2022/10/13 09:25:44;;;;;;;1.25;1.10;;;;;;;23.99;43.93;101233.59;4165943;28;20037;-60
2022/10/13 09:27:45;;;;;;;1.42;1.23;;;;;;;24.00;43.73;101234.44;4179192;28;20098;-60
2022/10/13 09:29:49;;;;;;;2.03;1.48;;;;;;;24.01;44.14;101238.94;4182708;28;20467;-59
2022/10/13 09:32:08;;;;;;;3.35;1.33;;;;;;;23.88;43.81;101218.09;4182919;28;20033;-60
2022/10/13 09:34:18;;;;;;;1.40;1.30;;;;;;;24.01;43.91;101230.53;4182416;28;20045;-60
2022/10/13 09:36:20;;;;;;;1.48;1.35;;;;;;;24.00;44.04;101224.09;4182966;28;20098;-60
2022/10/13 09:38:26;;;;;;;1.40;1.30;;;;;;;23.99;43.71;101228.00;4182790;28;20463;-60